Time;durP1;ratioP1;P1;durP2;ratioP2;P2;SDS_P1;SDS_P2;PMS_P1;PMS_P2;Temp;Humidity;BMP_temperature;BMP_pressure;BME280_temperature;BME280_humidity;BME280_pressure;Samples;Min_cycle;Max_cycle;Signal;HPM_P1;HPM_P2
2022/04/30 00:00:10;;;;;;;13.65;7.10;;;;;;;8.46;65.68;103146.56;4996919;28;20577;-60
2022/04/30 00:02:35;;;;;;;13.95;7.07;;;;;;;8.32;66.48;103155.25;4995305;28;20411;-61
2022/04/30 00:05:01;;;;;;;12.38;7.18;;;;;;;8.29;66.58;103153.34;5001440;28;20037;-59
2022/04/30 00:07:26;;;;;;;10.40;6.63;;;;;;;8.31;66.28;103140.44;5000436;28;20075;-60
2022/04/30 00:09:52;;;;;;;11.25;6.85;;;;;;;8.22;66.82;103138.19;5001151;28;20122;-59
2022/04/30 00:12:18;;;;;;;12.60;7.38;;;;;;;8.20;66.87;103139.78;4991074;28;21695;-59
2022/04/30 00:14:47;;;;;;;18.13;7.40;;;;;;;8.18;67.07;103138.78;4999340;28;20060;-60
2022/04/30 00:17:13;;;;;;;13.68;7.43;;;;;;;8.20;66.60;103146.69;4997967;28;20046;-59
2022/04/30 00:19:39;;;;;;;12.40;7.05;;;;;;;8.15;66.54;103136.94;5004734;28;20045;-60
2022/04/30 00:22:05;;;;;;;12.65;7.30;;;;;;;8.08;66.31;103144.28;4990467;28;20388;-63
2022/04/30 00:24:30;;;;;;;14.70;7.22;;;;;;;8.01;67.33;103137.81;4997497;28;20281;-59
2022/04/30 00:26:57;;;;;;;16.75;7.82;;;;;;;7.96;67.41;103143.53;4997367;28;20190;-60
2022/04/30 00:29:23;;;;;;;15.82;7.30;;;;;;;7.91;67.51;103142.38;4999910;28;20037;-60
2022/04/30 00:31:49;;;;;;;15.95;7.50;;;;;;;7.85;67.40;103139.41;4989531;28;20049;-59
2022/04/30 00:34:15;;;;;;;13.30;7.20;;;;;;;7.80;67.55;103146.03;4989706;28;21113;-59
2022/04/30 00:36:51;;;;;;;11.88;6.82;;;;;;;7.75;67.61;103135.34;4990069;28;20123;-58
2022/04/30 00:39:16;;;;;;;12.00;6.82;;;;;;;7.69;67.82;103141.06;4996114;28;20323;-60
2022/04/30 00:41:47;;;;;;;14.90;7.30;;;;;;;7.62;67.97;103131.09;5002025;28;20436;-59
2022/04/30 00:44:19;;;;;;;13.93;7.10;;;;;;;7.57;68.12;103134.22;4982523;28;21748;-60
2022/04/30 00:46:44;;;;;;;15.82;7.20;;;;;;;7.52;68.44;103131.34;4993136;28;20239;-59
2022/04/30 00:49:16;;;;;;;12.88;7.43;;;;;;;7.45;68.38;103131.75;4991003;28;20045;-58
2022/04/30 00:51:45;;;;;;;15.25;7.32;;;;;;;7.42;68.69;103121.22;4992864;28;20041;-61
2022/04/30 00:54:12;;;;;;;12.27;7.40;;;;;;;7.38;68.61;103129.59;4992808;28;20515;-59
2022/04/30 00:56:48;;;;;;;14.52;7.18;;;;;;;7.34;69.23;103120.72;5003263;28;20809;-59
2022/04/30 00:59:17;;;;;;;12.88;7.38;;;;;;;7.32;69.52;103121.41;4995763;28;20115;-59
2022/04/30 01:01:45;;;;;;;14.57;7.68;;;;;;;7.35;69.13;103116.44;5001220;28;20041;-59
2022/04/30 01:04:10;;;;;;;15.52;7.30;;;;;;;7.42;69.49;103122.91;4991100;28;20071;-60
2022/04/30 01:06:44;;;;;;;13.10;7.70;;;;;;;7.36;69.52;103112.16;4998945;28;20116;-61
2022/04/30 01:09:10;;;;;;;14.27;7.45;;;;;;;7.33;69.62;103113.75;4996392;28;20259;-60
2022/04/30 01:11:36;;;;;;;12.07;7.25;;;;;;;7.32;69.50;103108.44;4993340;28;20415;-60
2022/04/30 01:14:01;;;;;;;13.50;7.35;;;;;;;7.31;69.54;103109.28;4998413;28;20037;-58
2022/04/30 01:16:28;;;;;;;11.85;7.20;;;;;;;7.33;69.57;103113.75;4996194;28;20064;-60
2022/04/30 01:18:54;;;;;;;13.40;7.47;;;;;;;7.34;69.68;103107.75;5001976;28;20045;-61
2022/04/30 01:21:22;;;;;;;13.32;7.22;;;;;;;7.40;69.67;103103.75;5002382;28;20060;-59
2022/04/30 01:23:48;;;;;;;13.02;7.25;;;;;;;7.44;69.82;103105.75;4997994;28;20099;-60
2022/04/30 01:26:14;;;;;;;13.75;7.75;;;;;;;7.51;69.73;103108.78;4994542;28;20543;-59
2022/04/30 01:28:43;;;;;;;14.40;7.30;;;;;;;7.57;69.56;103109.16;4999239;28;20472;-60
2022/04/30 01:37:22;;;;;;;15.77;7.55;;;;;;;7.65;69.29;103110.53;5004558;28;20045;-59
2022/04/30 01:39:26;;;;;;;12.15;7.15;;;;;;;7.89;68.31;103092.94;5008035;28;20109;-60
2022/04/30 01:41:52;;;;;;;12.95;7.30;;;;;;;7.78;68.28;103095.69;5004077;28;20040;-59
2022/04/30 01:44:19;;;;;;;13.73;7.00;;;;;;;7.77;68.25;103089.59;4975886;28;20045;-60
2022/04/30 01:46:45;;;;;;;14.68;7.47;;;;;;;7.71;68.06;103091.81;4996675;28;20048;-59
2022/04/30 01:49:15;;;;;;;15.10;7.60;;;;;;;7.69;68.23;103085.63;4991432;28;21094;-60
2022/04/30 01:51:47;;;;;;;12.48;7.15;;;;;;;7.71;68.31;103084.03;5000000;28;20472;-58
2022/04/30 01:54:13;;;;;;;12.75;7.38;;;;;;;7.67;68.00;103084.66;4996697;28;20448;-59
2022/04/30 01:56:41;;;;;;;11.73;7.30;;;;;;;7.63;68.18;103090.47;5006755;28;20064;-58
2022/04/30 01:59:06;;;;;;;14.52;7.05;;;;;;;7.65;68.00;103087.16;4992095;28;20043;-57
2022/04/30 02:01:32;;;;;;;14.70;7.43;;;;;;;7.63;68.10;103087.84;5003859;28;20049;-61
2022/04/30 02:03:58;;;;;;;11.88;7.30;;;;;;;7.55;68.07;103078.72;4999782;28;20039;-61
2022/04/30 02:06:23;;;;;;;11.88;7.05;;;;;;;7.52;68.17;103079.44;4991852;28;20544;-60
2022/04/30 02:08:49;;;;;;;13.23;7.43;;;;;;;7.45;68.13;103079.84;4999779;28;20057;-60
2022/04/30 02:11:14;;;;;;;13.50;8.20;;;;;;;7.44;68.12;103074.59;5003980;28;20621;-59
2022/04/30 02:13:40;;;;;;;12.38;7.47;;;;;;;7.41;68.70;103077.00;5001113;28;20440;-58
2022/04/30 02:16:07;;;;;;;15.73;7.40;;;;;;;7.47;68.64;103082.56;4997403;28;20060;-60
2022/04/30 02:18:34;;;;;;;15.95;7.57;;;;;;;7.53;68.62;103070.84;5003596;28;20472;-59
2022/04/30 02:21:00;;;;;;;15.82;8.48;;;;;;;7.60;68.30;103069.53;5002172;28;20181;-60
2022/04/30 02:23:25;;;;;;;16.02;7.25;;;;;;;7.64;68.32;103072.38;4998784;28;20410;-58
2022/04/30 02:25:51;;;;;;;12.55;7.10;;;;;;;7.74;67.67;103074.72;5001084;28;20049;-59
2022/04/30 02:28:17;;;;;;;12.45;7.45;;;;;;;7.80;67.61;103062.94;4987742;28;20469;-60
2022/04/30 02:30:43;;;;;;;11.52;7.22;;;;;;;7.88;67.25;103069.44;4998306;28;20049;-60
2022/04/30 02:33:10;;;;;;;12.27;7.40;;;;;;;7.97;67.23;103070.00;4996413;28;20046;-59
2022/04/30 02:35:37;;;;;;;16.52;8.05;;;;;;;8.02;67.20;103065.97;5001737;28;20040;-60
2022/04/30 02:38:08;;;;;;;15.73;7.53;;;;;;;8.10;67.00;103063.03;4998336;28;20526;-58
2022/04/30 02:40:34;;;;;;;14.02;8.02;;;;;;;8.19;66.79;103066.94;5002991;28;20412;-59
2022/04/30 02:43:07;;;;;;;13.02;8.05;;;;;;;8.28;66.67;103062.28;5004338;28;20480;-60
2022/04/30 02:45:35;;;;;;;11.77;7.95;;;;;;;8.41;66.67;103054.44;5002905;28;20449;-60
2022/04/30 02:48:02;;;;;;;14.13;7.85;;;;;;;8.41;65.87;103052.72;5002372;28;20041;-59
2022/04/30 02:50:28;;;;;;;13.55;8.02;;;;;;;8.56;65.86;103052.69;5000682;28;20127;-59
2022/04/30 02:52:56;;;;;;;13.73;8.15;;;;;;;8.68;65.57;103048.16;4995453;28;20125;-59
2022/04/30 02:55:23;;;;;;;11.68;7.85;;;;;;;8.69;65.10;103043.84;4999745;28;20133;-59
2022/04/30 03:00:40;;;;;;;13.88;8.00;;;;;;;8.77;64.71;103046.09;5002403;28;20056;-59
2022/04/30 03:03:06;;;;;;;15.15;8.02;;;;;;;8.72;65.11;103041.44;4990067;28;20373;-59
2022/04/30 03:05:32;;;;;;;13.00;7.88;;;;;;;8.71;65.47;103042.25;4999944;28;20041;-60
2022/04/30 03:07:58;;;;;;;12.85;7.95;;;;;;;8.74;65.24;103032.91;4997164;28;20121;-59
2022/04/30 03:10:24;;;;;;;14.50;7.70;;;;;;;8.88;65.22;103038.88;4996912;28;20449;-59
2022/04/30 03:12:50;;;;;;;15.35;7.70;;;;;;;8.92;65.27;103035.59;5004455;28;20476;-58
2022/04/30 03:15:19;;;;;;;14.40;7.53;;;;;;;8.99;64.86;103037.72;4995764;28;20044;-59
2022/04/30 03:23:13;;;;;;;11.57;6.85;;;;;;;9.27;63.90;103040.13;4985569;28;20024;-59
2022/04/30 03:25:39;;;;;;;12.70;6.75;;;;;;;9.29;63.73;103033.25;4995681;28;20045;-59
2022/04/30 03:28:08;;;;;;;11.95;7.30;;;;;;;9.45;63.51;103032.38;4999795;28;20177;-57
2022/04/30 03:30:33;;;;;;;12.50;7.00;;;;;;;9.35;63.88;103025.78;5004102;28;20045;-59
2022/04/30 03:32:59;;;;;;;12.75;8.50;;;;;;;9.53;63.37;103024.13;4990540;28;20079;-57
2022/04/30 03:35:25;;;;;;;10.68;7.25;;;;;;;9.63;63.05;103022.91;4999454;28;20049;-58
2022/04/30 03:37:50;;;;;;;10.90;6.65;;;;;;;9.69;62.90;103016.31;4999296;28;20456;-57
2022/04/30 03:40:15;;;;;;;13.40;7.20;;;;;;;9.67;62.85;103019.66;4997899;28;20069;-58
2022/04/30 03:42:41;;;;;;;14.07;7.10;;;;;;;9.72;62.64;103015.56;5004792;28;20056;-58
2022/04/30 03:45:07;;;;;;;12.02;6.78;;;;;;;9.77;62.56;103012.38;5003532;28;20143;-60
2022/04/30 03:47:32;;;;;;;12.68;7.30;;;;;;;9.82;62.86;103015.19;4991559;28;20052;-58
2022/04/30 03:49:59;;;;;;;14.65;7.45;;;;;;;9.81;62.55;103005.63;5005828;28;20099;-59
2022/04/30 03:52:25;;;;;;;10.55;7.00;;;;;;;9.85;62.37;103004.03;4975466;28;20500;-59
2022/04/30 03:54:50;;;;;;;12.50;7.25;;;;;;;9.88;62.76;103006.81;5002138;28;20304;-57
2022/04/30 03:57:16;;;;;;;12.00;7.13;;;;;;;9.88;62.58;103004.22;5002023;28;20041;-59
2022/04/30 03:59:41;;;;;;;11.63;7.50;;;;;;;9.84;63.38;103007.47;4995293;28;21493;-59
2022/04/30 04:02:06;;;;;;;13.45;7.75;;;;;;;9.82;63.27;103004.78;4986588;28;20119;-58
2022/04/30 04:04:32;;;;;;;12.35;7.65;;;;;;;9.88;63.10;102996.41;4996385;28;20037;-59
2022/04/30 04:06:58;;;;;;;11.95;7.40;;;;;;;9.93;62.94;103000.13;4998804;28;20182;-59
2022/04/30 04:09:23;;;;;;;13.50;7.03;;;;;;;9.84;63.85;103003.16;5003190;28;20156;-59
2022/04/30 04:11:48;;;;;;;11.48;7.53;;;;;;;9.82;63.40;103003.91;5002004;28;20144;-59
2022/04/30 04:19:42;;;;;;;10.85;6.72;;;;;;;9.82;63.81;103011.72;4997313;28;20590;-59
2022/04/30 04:22:07;;;;;;;11.55;7.18;;;;;;;9.77;63.93;103012.38;4996120;28;20053;-59
2022/04/30 04:27:18;;;;;;;11.50;7.10;;;;;;;9.79;63.91;103015.06;4998935;28;20518;-60
2022/04/30 04:29:46;;;;;;;11.70;7.10;;;;;;;9.80;64.17;103026.38;4987952;28;20936;-59
2022/04/30 04:32:11;;;;;;;10.73;7.03;;;;;;;9.83;64.18;103019.59;4996083;28;20041;-58
2022/04/30 04:34:37;;;;;;;14.68;7.45;;;;;;;9.84;63.88;103024.00;4998016;28;20138;-59
2022/04/30 04:37:03;;;;;;;11.05;7.45;;;;;;;9.84;64.29;103028.31;4982073;28;20044;-60
2022/04/30 04:39:28;;;;;;;11.50;7.53;;;;;;;9.85;64.23;103024.88;4996068;28;20146;-58
2022/04/30 04:41:53;;;;;;;13.50;7.15;;;;;;;9.86;63.96;103017.16;4999605;28;20041;-57
2022/04/30 04:44:21;;;;;;;11.98;7.72;;;;;;;9.90;63.89;103016.47;4993191;28;20281;-58
2022/04/30 04:46:47;;;;;;;11.73;7.13;;;;;;;9.87;64.24;103018.94;4998679;28;20124;-57
2022/04/30 04:49:12;;;;;;;15.45;7.53;;;;;;;9.87;64.09;103024.16;5000758;28;20038;-59
2022/04/30 04:51:38;;;;;;;12.93;7.25;;;;;;;9.89;64.31;103025.13;4998301;28;20049;-59
2022/04/30 04:54:03;;;;;;;12.18;7.75;;;;;;;9.95;64.30;103029.72;4998676;28;20049;-59
2022/04/30 04:56:30;;;;;;;12.02;7.63;;;;;;;9.97;64.05;103036.81;4997000;28;20073;-59
2022/04/30 04:58:55;;;;;;;11.85;7.50;;;;;;;10.00;64.35;103034.34;5000426;28;20079;-59
2022/04/30 05:01:21;;;;;;;17.80;8.55;;;;;;;10.00;63.93;103034.34;5001309;28;20124;-59
2022/04/30 05:03:46;;;;;;;14.38;8.23;;;;;;;10.02;64.24;103037.03;4992642;28;20044;-59
2022/04/30 05:06:12;;;;;;;11.93;7.30;;;;;;;10.09;63.88;103037.44;4992147;28;20697;-59
2022/04/30 05:08:37;;;;;;;12.73;7.97;;;;;;;10.09;64.42;103040.03;5005127;28;20053;-59
2022/04/30 05:11:02;;;;;;;12.93;8.40;;;;;;;10.12;64.48;103037.56;4990213;28;20060;-58
2022/04/30 05:13:27;;;;;;;13.38;8.10;;;;;;;10.22;64.24;103046.78;5002120;28;20037;-57
2022/04/30 05:15:53;;;;;;;13.65;8.32;;;;;;;10.20;63.87;103038.00;5005949;28;20053;-59
2022/04/30 05:18:19;;;;;;;13.00;8.40;;;;;;;10.20;64.36;103038.00;5000616;28;20380;-58
2022/04/30 05:20:49;;;;;;;11.27;8.10;;;;;;;10.20;64.94;103032.78;5008282;28;20075;-58
2022/04/30 05:23:14;;;;;;;13.98;8.45;;;;;;;10.23;65.35;103035.56;5005224;28;20100;-59
2022/04/30 05:25:40;;;;;;;13.25;8.10;;;;;;;10.22;65.03;103040.69;5005166;28;20527;-58
2022/04/30 05:28:09;;;;;;;13.65;8.40;;;;;;;10.25;64.82;103033.88;4991630;28;20032;-60
2022/04/30 05:30:35;;;;;;;13.52;8.70;;;;;;;10.30;64.55;103037.66;5009234;28;20032;-61
2022/04/30 05:33:01;;;;;;;14.63;9.15;;;;;;;10.33;64.62;103037.78;4999714;28;20323;-59
2022/04/30 05:35:26;;;;;;;17.27;8.68;;;;;;;10.33;64.88;103043.00;4974366;28;20053;-59
2022/04/30 05:37:52;;;;;;;14.23;8.98;;;;;;;10.37;64.34;103044.06;5004855;28;20045;-58
2022/04/30 05:40:18;;;;;;;15.02;8.73;;;;;;;10.41;64.21;103045.97;4992338;28;20045;-58
2022/04/30 05:42:44;;;;;;;13.02;8.35;;;;;;;10.48;64.05;103042.84;4999233;28;20160;-59
2022/04/30 05:45:09;;;;;;;19.05;8.55;;;;;;;10.47;63.41;103035.84;4991442;28;20042;-60
2022/04/30 05:47:35;;;;;;;12.55;8.85;;;;;;;10.49;63.10;103037.69;5007872;28;20041;-60
2022/04/30 05:50:00;;;;;;;14.52;8.40;;;;;;;10.58;63.36;103032.94;5002546;28;20389;-58
2022/04/30 05:52:25;;;;;;;16.13;8.85;;;;;;;10.64;63.20;103036.63;4989199;28;20046;-59
2022/04/30 05:54:51;;;;;;;12.77;8.20;;;;;;;10.60;62.69;103035.63;4998674;28;20056;-59
2022/04/30 05:57:16;;;;;;;13.13;8.07;;;;;;;10.72;62.59;103024.88;5001445;28;20355;-59
2022/04/30 05:59:41;;;;;;;16.98;9.10;;;;;;;10.75;63.20;103025.88;5000533;28;20041;-58
2022/04/30 06:02:07;;;;;;;17.40;8.65;;;;;;;10.79;64.00;103021.72;4992509;28;20772;-59
2022/04/30 06:04:32;;;;;;;17.88;8.70;;;;;;;10.82;63.16;103025.34;4987998;28;20596;-60
2022/04/30 06:06:58;;;;;;;13.23;8.20;;;;;;;10.86;62.43;103026.38;4998164;28;20668;-60
2022/04/30 06:09:24;;;;;;;15.45;8.60;;;;;;;10.91;61.03;103033.63;5007102;28;20083;-58
2022/04/30 06:11:49;;;;;;;12.88;8.05;;;;;;;10.94;60.61;103018.09;4997946;28;20206;-60
2022/04/30 06:14:15;;;;;;;13.15;8.13;;;;;;;11.06;61.17;103022.97;4993671;28;20499;-58
2022/04/30 06:16:40;;;;;;;14.35;7.88;;;;;;;11.23;60.89;103032.44;4994537;28;21258;-59
2022/04/30 06:19:05;;;;;;;13.05;8.00;;;;;;;11.31;60.47;103033.69;4999828;28;20073;-59
2022/04/30 06:21:31;;;;;;;13.85;7.90;;;;;;;11.43;60.25;103029.84;5005012;28;20049;-59
2022/04/30 06:23:57;;;;;;;13.32;8.10;;;;;;;11.55;59.69;103041.72;4995919;28;20139;-60
2022/04/30 06:26:23;;;;;;;14.27;8.02;;;;;;;11.56;59.84;103043.50;4995379;28;20893;-59
2022/04/30 06:28:49;;;;;;;12.57;7.57;;;;;;;11.62;59.34;103042.88;4997199;28;20048;-59
2022/04/30 06:31:14;;;;;;;11.70;7.60;;;;;;;11.56;59.48;103037.41;4997857;28;20048;-59
2022/04/30 06:33:39;;;;;;;14.20;7.70;;;;;;;11.40;59.49;103036.72;5003489;28;20049;-59
2022/04/30 06:36:05;;;;;;;12.32;7.88;;;;;;;11.36;59.31;103037.41;5000091;28;20049;-59
2022/04/30 06:38:31;;;;;;;13.82;7.90;;;;;;;11.38;59.78;103034.88;5002505;28;20167;-59
2022/04/30 06:40:56;;;;;;;12.20;7.70;;;;;;;11.44;59.99;103027.31;4998211;28;20406;-60
2022/04/30 06:43:22;;;;;;;12.27;7.90;;;;;;;11.56;60.76;103040.91;4990629;28;20041;-58
2022/04/30 06:45:47;;;;;;;10.90;7.18;;;;;;;11.64;60.66;103038.63;4991619;28;20056;-58
2022/04/30 06:48:12;;;;;;;17.17;8.30;;;;;;;11.68;59.48;103035.31;4977234;28;20046;-57
2022/04/30 06:50:38;;;;;;;14.40;7.80;;;;;;;11.84;59.88;103036.88;4978746;28;20060;-58
2022/04/30 06:58:41;;;;;;;12.63;7.78;;;;;;;12.83;58.11;103024.41;4998731;28;20558;-57
2022/04/30 07:03:55;;;;;;;9.80;6.45;;;;;;;13.24;55.64;103025.97;4994224;28;20471;-59
2022/04/30 07:06:21;;;;;;;11.23;6.63;;;;;;;13.50;54.65;103026.91;4998178;28;20591;-60
2022/04/30 07:08:46;;;;;;;12.18;7.43;;;;;;;13.51;55.58;103017.31;5004250;28;20177;-58
2022/04/30 07:11:11;;;;;;;9.70;6.43;;;;;;;13.66;54.70;103016.13;5004221;28;20053;-60
2022/04/30 07:13:37;;;;;;;13.82;7.32;;;;;;;13.51;53.73;103017.31;5000438;28;20049;-59
2022/04/30 07:16:04;;;;;;;11.65;7.13;;;;;;;13.66;53.07;103010.88;4993003;28;20362;-58
2022/04/30 07:18:30;;;;;;;12.95;7.07;;;;;;;13.64;52.96;103012.56;4998465;28;20049;-59
2022/04/30 07:20:55;;;;;;;11.60;6.30;;;;;;;13.82;52.89;103014.94;5004326;28;20044;-58
2022/04/30 07:23:21;;;;;;;10.48;7.05;;;;;;;13.74;51.48;103011.16;4999435;28;20174;-60
2022/04/30 07:25:46;;;;;;;9.15;6.22;;;;;;;14.04;51.38;103012.19;4994688;28;20061;-58
2022/04/30 07:28:11;;;;;;;13.95;5.85;;;;;;;14.57;49.98;103015.69;4995490;28;20053;-59
2022/04/30 07:30:37;;;;;;;8.55;5.72;;;;;;;15.09;48.48;103015.50;4992532;28;20060;-59
2022/04/30 07:33:02;;;;;;;8.27;6.05;;;;;;;15.55;47.65;103024.72;5000033;28;20110;-59
2022/04/30 07:35:28;;;;;;;9.52;5.63;;;;;;;16.02;46.23;103016.31;5003156;28;20036;-59
2022/04/30 07:37:53;;;;;;;10.32;5.72;;;;;;;17.20;42.80;103014.63;5000603;28;20429;-59
2022/04/30 07:40:18;;;;;;;9.93;5.20;;;;;;;18.10;40.07;103012.81;4993619;28;20259;-58
2022/04/30 07:42:44;;;;;;;7.95;4.63;;;;;;;19.57;37.88;103002.47;5001105;28;20558;-58
2022/04/30 07:45:10;;;;;;;8.35;4.55;;;;;;;20.27;35.73;103001.31;4993072;28;20445;-58
2022/04/30 07:47:36;;;;;;;5.55;4.05;;;;;;;21.15;35.02;103003.56;4999116;28;20072;-59
2022/04/30 07:50:02;;;;;;;5.60;3.95;;;;;;;22.05;31.86;102994.03;4994832;28;20037;-57
2022/04/30 07:52:28;;;;;;;7.53;4.50;;;;;;;20.99;32.13;102995.53;4996097;28;20051;-59
2022/04/30 07:54:54;;;;;;;8.30;4.88;;;;;;;20.22;35.01;102993.34;4995237;28;20053;-59
2022/04/30 07:57:20;;;;;;;6.93;4.35;;;;;;;20.20;33.41;102984.47;4989816;28;20508;-59
2022/04/30 07:59:46;;;;;;;7.95;4.40;;;;;;;20.15;33.32;102990.63;4992840;28;20127;-60
2022/04/30 08:02:11;;;;;;;7.68;4.80;;;;;;;19.47;35.26;102993.53;4985099;28;20136;-59
2022/04/30 08:04:37;;;;;;;8.20;4.90;;;;;;;19.36;36.15;102998.69;4991514;28;20515;-59
2022/04/30 08:07:02;;;;;;;6.95;4.75;;;;;;;18.56;38.02;102998.56;4997425;28;20103;-59
2022/04/30 08:09:28;;;;;;;8.13;5.07;;;;;;;18.61;38.62;102999.50;5003648;28;20504;-59
2022/04/30 08:11:53;;;;;;;8.45;5.50;;;;;;;18.29;38.08;102997.25;4996995;28;20508;-59
2022/04/30 08:14:18;;;;;;;9.38;5.50;;;;;;;17.61;39.04;102997.88;4994755;28;20530;-59
2022/04/30 08:16:44;;;;;;;8.82;4.90;;;;;;;17.05;39.44;102996.75;4973011;28;20072;-60
2022/04/30 08:19:09;;;;;;;7.43;5.00;;;;;;;17.03;40.57;102998.44;5003483;28;20634;-59
2022/04/30 08:21:35;;;;;;;8.85;4.97;;;;;;;16.66;40.85;102996.78;4996975;28;20053;-58
2022/04/30 08:24:01;;;;;;;7.70;4.90;;;;;;;17.14;41.04;102991.63;4995962;28;20124;-59
2022/04/30 08:26:26;;;;;;;9.30;4.70;;;;;;;17.47;39.64;102998.44;4993934;28;20144;-58
2022/04/30 08:28:52;;;;;;;9.05;4.90;;;;;;;17.51;38.78;102993.25;4998927;28;20038;-59
2022/04/30 08:31:18;;;;;;;9.63;4.25;;;;;;;17.61;38.13;102994.34;4998428;28;20056;-60
2022/04/30 08:33:43;;;;;;;7.30;4.50;;;;;;;17.36;39.41;102987.69;4996844;28;20524;-60
2022/04/30 08:36:09;;;;;;;8.90;4.47;;;;;;;17.89;39.29;102983.41;4990702;28;20489;-59
2022/04/30 08:38:34;;;;;;;7.30;4.80;;;;;;;18.38;39.54;102992.09;5006473;28;20041;-61
2022/04/30 08:40:59;;;;;;;7.28;4.35;;;;;;;18.53;38.90;102985.28;4997016;28;20044;-60
2022/04/30 08:43:26;;;;;;;8.23;4.50;;;;;;;18.47;37.83;102995.78;5002381;28;20741;-59
2022/04/30 08:45:51;;;;;;;7.63;4.30;;;;;;;17.75;37.38;102987.53;4992249;28;20080;-59
2022/04/30 08:48:17;;;;;;;7.22;4.50;;;;;;;17.18;38.99;102982.97;4979172;28;20041;-60
2022/04/30 08:50:47;;;;;;;8.32;4.68;;;;;;;16.96;40.36;102984.25;4996431;28;20056;-60
2022/04/30 08:53:14;;;;;;;8.85;5.07;;;;;;;16.36;41.52;102986.41;4995898;28;20029;-59
2022/04/30 08:55:39;;;;;;;7.60;5.30;;;;;;;16.14;42.76;102992.03;4997936;28;20052;-60
2022/04/30 08:58:05;;;;;;;7.97;5.65;;;;;;;15.74;44.40;102991.03;4998456;28;20408;-60
2022/04/30 09:00:37;;;;;;;8.77;5.65;;;;;;;15.59;44.55;102989.75;5003837;28;20045;-59
2022/04/30 09:03:02;;;;;;;9.70;5.18;;;;;;;15.49;45.32;102988.56;5002526;28;20053;-60
2022/04/30 09:05:37;;;;;;;11.38;5.88;;;;;;;15.32;47.07;102988.13;4991241;28;20943;-59
2022/04/30 09:08:03;;;;;;;9.90;5.63;;;;;;;15.24;48.30;102994.03;5005344;28;20037;-59
2022/04/30 09:10:31;;;;;;;15.07;6.10;;;;;;;14.99;50.36;102995.06;4998268;28;20096;-61
2022/04/30 09:13:23;;;;;;;10.10;5.80;;;;;;;15.00;52.45;103000.34;4998563;28;20103;-59
2022/04/30 09:15:48;;;;;;;8.77;5.78;;;;;;;14.93;52.35;103003.66;5001056;28;20037;-59
2022/04/30 09:18:14;;;;;;;10.05;6.30;;;;;;;14.94;52.76;103007.19;4990705;28;20036;-58
2022/04/30 09:20:48;;;;;;;10.27;5.70;;;;;;;14.76;51.68;103004.00;5001105;28;20048;-59
2022/04/30 09:23:28;;;;;;;12.45;5.82;;;;;;;14.90;52.93;103005.28;5004973;28;20049;-59
2022/04/30 09:25:55;;;;;;;11.10;5.72;;;;;;;14.96;52.38;103006.38;4994638;28;21228;-60
2022/04/30 09:28:28;;;;;;;7.53;5.28;;;;;;;15.09;51.86;103002.34;4996806;28;20910;-59
2022/04/30 09:31:07;;;;;;;8.80;5.57;;;;;;;14.97;53.66;103005.53;4998195;28;20140;-59
2022/04/30 09:33:33;;;;;;;9.85;5.70;;;;;;;14.87;54.52;103008.72;5000902;28;20068;-58
2022/04/30 09:38:49;;;;;;;9.15;5.30;;;;;;;14.86;55.65;103000.81;5000883;28;20893;-59
2022/04/30 09:41:24;;;;;;;9.75;5.05;;;;;;;14.89;55.55;102993.00;5003416;28;20044;-59
2022/04/30 09:44:26;;;;;;;9.10;4.82;;;;;;;14.91;53.83;103000.09;5000520;28;20045;-60
2022/04/30 09:46:53;;;;;;;8.48;5.20;;;;;;;14.58;57.10;102997.34;4997370;28;20433;-60
2022/04/30 09:54:47;;;;;;;11.93;6.10;;;;;;;14.64;56.18;102986.13;5000794;28;21099;-59
2022/04/30 09:57:18;;;;;;;9.23;6.10;;;;;;;14.69;56.15;102979.31;5003906;28;20080;-59
2022/04/30 09:59:47;;;;;;;9.63;6.20;;;;;;;14.76;57.39;102977.75;4993935;28;20444;-60
2022/04/30 10:02:20;;;;;;;9.80;5.90;;;;;;;15.06;56.32;102972.50;4996831;28;20057;-61
2022/04/30 10:04:46;;;;;;;8.65;5.70;;;;;;;15.01;56.42;102973.22;5003897;28;20045;-58
2022/04/30 10:07:18;;;;;;;10.77;5.80;;;;;;;15.13;57.44;102969.16;4996993;28;20758;-59
2022/04/30 10:09:53;;;;;;;8.65;5.78;;;;;;;15.19;55.83;102966.72;5003341;28;20061;-59
2022/04/30 10:12:35;;;;;;;9.07;5.70;;;;;;;15.05;55.16;102962.81;4990896;28;20072;-59
2022/04/30 10:15:30;;;;;;;9.07;6.63;;;;;;;14.78;57.77;102966.44;5003222;28;20045;-60
2022/04/30 10:17:57;;;;;;;13.25;6.13;;;;;;;15.01;54.60;102957.47;4998610;28;20049;-60
2022/04/30 10:20:34;;;;;;;11.05;6.78;;;;;;;15.09;56.50;102948.91;4994979;28;20033;-59
2022/04/30 10:23:01;;;;;;;7.93;5.10;;;;;;;15.20;53.91;102945.75;4997398;28;20049;-60
2022/04/30 10:25:44;;;;;;;7.25;3.92;;;;;;;15.52;51.20;102950.97;5002236;28;20496;-58
2022/04/30 10:28:15;;;;;;;9.82;3.85;;;;;;;15.72;50.10;102944.53;4988128;28;20135;-59
2022/04/30 10:30:43;;;;;;;7.28;3.95;;;;;;;15.81;49.67;102931.59;4994589;28;20607;-59
2022/04/30 10:33:09;;;;;;;6.82;3.80;;;;;;;16.05;47.52;102939.16;5005959;28;20354;-60
2022/04/30 10:35:36;;;;;;;6.80;3.35;;;;;;;16.15;46.61;102925.41;4993824;28;20140;-58
2022/04/30 10:38:21;;;;;;;5.10;3.40;;;;;;;16.30;47.83;102936.25;5000117;28;20053;-58
2022/04/30 10:40:48;;;;;;;5.75;3.60;;;;;;;16.33;46.22;102920.56;4982150;28;20054;-59
2022/04/30 10:43:38;;;;;;;5.72;3.47;;;;;;;15.91;48.62;102919.56;4999346;28;20563;-58
2022/04/30 10:46:12;;;;;;;6.80;3.78;;;;;;;15.83;48.63;102922.91;4997076;28;20567;-59
2022/04/30 10:48:38;;;;;;;9.00;3.80;;;;;;;15.49;48.49;102933.34;5000017;28;20056;-59
2022/04/30 10:51:06;;;;;;;8.07;4.10;;;;;;;15.13;49.78;102919.25;5006229;28;20045;-58
2022/04/30 10:53:33;;;;;;;7.63;4.10;;;;;;;15.53;50.92;102930.03;5003809;28;20114;-58
2022/04/30 10:56:01;;;;;;;6.00;3.50;;;;;;;15.08;48.55;102919.13;4997238;28;20104;-58
2022/04/30 10:58:34;;;;;;;8.43;3.97;;;;;;;15.27;49.25;102923.16;5003082;28;20103;-58
2022/04/30 11:01:15;;;;;;;5.70;3.80;;;;;;;15.32;48.98;102925.03;5001647;28;21062;-56
2022/04/30 11:03:42;;;;;;;8.38;3.55;;;;;;;15.86;47.57;102918.56;4994919;28;20069;-57
2022/04/30 11:06:12;;;;;;;4.95;3.40;;;;;;;16.09;46.36;102918.25;4991181;28;20544;-60
2022/04/30 11:08:38;;;;;;;6.40;3.60;;;;;;;16.18;45.27;102918.44;5001573;28;20102;-60
2022/04/30 11:11:03;;;;;;;7.20;3.40;;;;;;;15.74;45.91;102908.59;5004021;28;20124;-59
2022/04/30 11:13:29;;;;;;;7.30;3.40;;;;;;;15.26;47.19;102918.72;4999529;28;20056;-58
2022/04/30 11:15:59;;;;;;;6.88;3.83;;;;;;;15.55;47.74;102924.81;5000900;28;20129;-60
2022/04/30 11:18:24;;;;;;;6.90;3.38;;;;;;;15.96;46.34;102917.94;4992596;28;20126;-60
2022/04/30 11:20:59;;;;;;;7.40;3.40;;;;;;;16.19;45.31;102916.72;4996980;28;20057;-60
2022/04/30 11:23:24;;;;;;;;;;;;;;;16.45;44.88;102907.66;5005049;28;20049;-58
2022/04/30 11:25:49;;;;;;;4.93;2.90;;;;;;;16.55;43.36;102912.25;4987783;28;19920;-58
2022/04/30 11:28:14;;;;;;;6.53;2.70;;;;;;;16.73;44.07;102916.16;4998171;28;20304;-57
2022/04/30 11:30:42;;;;;;;8.65;3.05;;;;;;;16.73;44.62;102908.25;5001848;28;20060;-58
2022/04/30 11:33:09;;;;;;;4.93;2.30;;;;;;;16.22;43.10;102907.13;5003671;28;20037;-59
2022/04/30 11:35:34;;;;;;;5.72;2.80;;;;;;;16.51;44.72;102905.16;5003013;28;20049;-59
2022/04/30 11:38:07;;;;;;;4.93;2.70;;;;;;;16.86;44.78;102911.16;4995232;28;20155;-59
2022/04/30 11:40:33;;;;;;;5.00;2.80;;;;;;;17.24;44.03;102903.09;4989975;28;20134;-60
2022/04/30 11:42:59;;;;;;;5.03;2.38;;;;;;;17.37;42.34;102902.47;5000428;28;20910;-60
2022/04/30 11:45:32;;;;;;;3.38;2.00;;;;;;;16.77;40.91;102899.56;5002365;28;20522;-60
2022/04/30 11:48:03;;;;;;;3.33;1.83;;;;;;;17.03;41.52;102900.94;5002973;28;20561;-59
2022/04/30 11:50:29;;;;;;;5.35;2.08;;;;;;;16.93;41.55;102907.81;5000841;28;20142;-60
2022/04/30 11:52:56;;;;;;;3.85;1.88;;;;;;;17.04;40.65;102897.47;4994000;28;20283;-60
2022/04/30 11:55:21;;;;;;;3.75;2.17;;;;;;;16.77;40.15;102899.56;4998514;28;20496;-59
2022/04/30 11:57:48;;;;;;;2.92;1.92;;;;;;;15.42;42.46;102892.03;4989377;28;20531;-59
2022/04/30 12:00:16;;;;;;;7.07;2.10;;;;;;;15.77;42.47;102890.28;4989830;28;20063;-60
2022/04/30 12:02:49;;;;;;;4.80;2.22;;;;;;;16.05;42.16;102895.34;5000688;28;20072;-61